DAL2689 KBOS-KDCA
Flight info
| Callsign | DAL2689 |
|---|---|
| Flight time | 1h 13m |
| Altitude | 34000 |
| Route | SSOXS7 SSOXS Q167 ZIZZI KNUKK ATR LAFLN DEALE3 |
| Aircraft | A21N/M-SADE2E3GHIJ4J7M3P2RWXYZ/LB1D1 |
Departure
| Time | 2026-05-06 13:25 |
|---|---|
| Airport | Boston Logan International Airport (KBOS) |
Arrival
| Time | 2026-05-06 14:39 |
|---|---|
| Airport | Ronald Reagan Washington National Airport (KDCA) |
| Time | Latitude | Longitude | Altitude | Speed | Heading |
|---|---|---|---|---|---|
| 2026-05-06 12:59 | 42.36335 | -71.02120 | 31 ft | 0 kts | 17° |
| 2026-05-06 13:11 | 42.36330 | -71.02122 | 31 ft | 0 kts | 13° |
| 2026-05-06 13:11 | 42.36313 | -71.02127 | 31 ft | 0 kts | 15° |
| 2026-05-06 13:12 | 42.36295 | -71.02137 | 31 ft | 0 kts | 35° |
| 2026-05-06 13:12 | 42.36281 | -71.02155 | 31 ft | 0 kts | 56° |
| 2026-05-06 13:12 | 42.36272 | -71.02178 | 31 ft | 0 kts | 72° |
| 2026-05-06 13:12 | 42.36270 | -71.02187 | 31 ft | 0 kts | 73° |
| 2026-05-06 13:14 | 42.36283 | -71.02182 | 31 ft | 4 kts | 336° |
| 2026-05-06 13:15 | 42.36278 | -71.02221 | 31 ft | 6 kts | 218° |
| 2026-05-06 13:15 | 42.36234 | -71.02249 | 31 ft | 8 kts | 203° |
| 2026-05-06 13:15 | 42.36177 | -71.02280 | 31 ft | 10 kts | 196° |
| 2026-05-06 13:15 | 42.36109 | -71.02250 | 31 ft | 12 kts | 128° |
| 2026-05-06 13:16 | 42.36063 | -71.02148 | 31 ft | 14 kts | 119° |
| 2026-05-06 13:16 | 42.36014 | -71.02029 | 31 ft | 15 kts | 119° |
| 2026-05-06 13:16 | 42.35957 | -71.01900 | 31 ft | 17 kts | 121° |
| 2026-05-06 13:16 | 42.35909 | -71.01750 | 31 ft | 18 kts | 99° |
| 2026-05-06 13:17 | 42.35902 | -71.01652 | 31 ft | 9 kts | 69° |
| 2026-05-06 13:17 | 42.35963 | -71.01608 | 31 ft | 11 kts | 19° |
| 2026-05-06 13:17 | 42.36041 | -71.01571 | 31 ft | 13 kts | 19° |
| 2026-05-06 13:17 | 42.36128 | -71.01531 | 31 ft | 13 kts | 18° |
| 2026-05-06 13:18 | 42.36188 | -71.01504 | 31 ft | 7 kts | 19° |
| 2026-05-06 13:18 | 42.36240 | -71.01480 | 31 ft | 9 kts | 19° |
| 2026-05-06 13:18 | 42.36272 | -71.01465 | 31 ft | 5 kts | 19° |
| 2026-05-06 13:18 | 42.36312 | -71.01447 | 31 ft | 7 kts | 19° |
| 2026-05-06 13:19 | 42.36364 | -71.01421 | 31 ft | 9 kts | 20° |
| 2026-05-06 13:19 | 42.36419 | -71.01393 | 31 ft | 7 kts | 20° |
| 2026-05-06 13:19 | 42.36474 | -71.01365 | 31 ft | 9 kts | 22° |
| 2026-05-06 13:19 | 42.36539 | -71.01324 | 31 ft | 11 kts | 27° |
| 2026-05-06 13:20 | 42.36614 | -71.01275 | 31 ft | 13 kts | 20° |
| 2026-05-06 13:20 | 42.36695 | -71.01245 | 31 ft | 11 kts | 13° |
| 2026-05-06 13:20 | 42.36773 | -71.01257 | 31 ft | 13 kts | 327° |
| 2026-05-06 13:20 | 42.36837 | -71.01280 | 31 ft | 9 kts | 7° |
| 2026-05-06 13:21 | 42.36892 | -71.01222 | 31 ft | 11 kts | 43° |
| 2026-05-06 13:21 | 42.36952 | -71.01146 | 31 ft | 13 kts | 41° |
| 2026-05-06 13:21 | 42.37035 | -71.01079 | 31 ft | 15 kts | 26° |
| 2026-05-06 13:21 | 42.37133 | -71.01015 | 31 ft | 16 kts | 26° |
| 2026-05-06 13:22 | 42.37239 | -71.00946 | 31 ft | 18 kts | 26° |
| 2026-05-06 13:22 | 42.37358 | -71.00879 | 31 ft | 19 kts | 18° |
| 2026-05-06 13:22 | 42.37483 | -71.00819 | 31 ft | 15 kts | 20° |
| 2026-05-06 13:22 | 42.37589 | -71.00768 | 31 ft | 17 kts | 19° |
| 2026-05-06 13:23 | 42.37703 | -71.00714 | 31 ft | 17 kts | 19° |
| 2026-05-06 13:23 | 42.37782 | -71.00676 | 31 ft | 10 kts | 19° |
| 2026-05-06 13:23 | 42.37825 | -71.00652 | 31 ft | 6 kts | 35° |
| 2026-05-06 13:23 | 42.37837 | -71.00593 | 31 ft | 8 kts | 101° |
| 2026-05-06 13:24 | 42.37820 | -71.00514 | 31 ft | 10 kts | 121° |
| 2026-05-06 13:24 | 42.37774 | -71.00483 | 31 ft | 5 kts | 196° |
| 2026-05-06 13:24 | 42.37767 | -71.00487 | 31 ft | 0 kts | 202° |
| 2026-05-06 13:24 | 42.37711 | -71.00514 | 31 ft | 35 kts | 199° |
| 2026-05-06 13:25 | 42.37231 | -71.00741 | 32 ft | 110 kts | 199° |
| 2026-05-06 13:25 | 42.36325 | -71.01179 | 179 ft | 151 kts | 199° |
| 2026-05-06 13:25 | 42.35383 | -71.01610 | 994 ft | 140 kts | 193° |
| 2026-05-06 13:25 | 42.34391 | -71.01640 | 1455 ft | 151 kts | 168° |
| 2026-05-06 13:26 | 42.33418 | -71.00900 | 1792 ft | 175 kts | 137° |
| 2026-05-06 13:26 | 42.32647 | -70.99524 | 2313 ft | 190 kts | 133° |
| 2026-05-06 13:26 | 42.31820 | -70.98036 | 2866 ft | 207 kts | 135° |
| 2026-05-06 13:26 | 42.31171 | -70.96179 | 3438 ft | 237 kts | 108° |
| 2026-05-06 13:27 | 42.31228 | -70.93814 | 3848 ft | 271 kts | 85° |
| 2026-05-06 13:27 | 42.31635 | -70.91199 | 4408 ft | 290 kts | 82° |
| 2026-05-06 13:27 | 42.32071 | -70.88508 | 5162 ft | 296 kts | 83° |
| 2026-05-06 13:27 | 42.32492 | -70.85777 | 6019 ft | 300 kts | 83° |
| 2026-05-06 13:28 | 42.32908 | -70.82987 | 6847 ft | 304 kts | 83° |
| 2026-05-06 13:28 | 42.33119 | -70.80163 | 7621 ft | 301 kts | 102° |
| 2026-05-06 13:28 | 42.32559 | -70.77510 | 8379 ft | 292 kts | 121° |
| 2026-05-06 13:28 | 42.31687 | -70.75022 | 9132 ft | 294 kts | 124° |
| 2026-05-06 13:29 | 42.30786 | -70.72529 | 9860 ft | 298 kts | 124° |
| 2026-05-06 13:29 | 42.29730 | -70.70128 | 10606 ft | 295 kts | 134° |
| 2026-05-06 13:29 | 42.28328 | -70.68151 | 11159 ft | 293 kts | 153° |
| 2026-05-06 13:29 | 42.26488 | -70.66942 | 11489 ft | 300 kts | 167° |
| 2026-05-06 13:30 | 42.24467 | -70.66050 | 11968 ft | 310 kts | 168° |
| 2026-05-06 13:30 | 42.22404 | -70.65159 | 12659 ft | 314 kts | 168° |
| 2026-05-06 13:30 | 42.20311 | -70.64232 | 13357 ft | 318 kts | 168° |
| 2026-05-06 13:30 | 42.18195 | -70.63280 | 14008 ft | 324 kts | 167° |
| 2026-05-06 13:31 | 42.16038 | -70.62312 | 14641 ft | 328 kts | 169° |
| 2026-05-06 13:31 | 42.13789 | -70.61801 | 15058 ft | 331 kts | 185° |
| 2026-05-06 13:31 | 42.11522 | -70.62280 | 15538 ft | 332 kts | 200° |
| 2026-05-06 13:31 | 42.09317 | -70.63254 | 16125 ft | 336 kts | 202° |
| 2026-05-06 13:32 | 42.07088 | -70.64290 | 16717 ft | 341 kts | 202° |
| 2026-05-06 13:32 | 42.04813 | -70.65331 | 17169 ft | 350 kts | 202° |
| 2026-05-06 13:32 | 42.02465 | -70.66385 | 17550 ft | 360 kts | 202° |
| 2026-05-06 13:32 | 42.00070 | -70.67445 | 18089 ft | 365 kts | 202° |
| 2026-05-06 13:33 | 41.97644 | -70.68514 | 18628 ft | 370 kts | 202° |
| 2026-05-06 13:33 | 41.95186 | -70.69597 | 19139 ft | 374 kts | 202° |
| 2026-05-06 13:33 | 41.92693 | -70.70688 | 19680 ft | 378 kts | 202° |
| 2026-05-06 13:33 | 41.90183 | -70.71789 | 20213 ft | 382 kts | 202° |
| 2026-05-06 13:34 | 41.87678 | -70.72890 | 20718 ft | 385 kts | 202° |
| 2026-05-06 13:34 | 41.85085 | -70.74031 | 21221 ft | 389 kts | 202° |
| 2026-05-06 13:34 | 41.82583 | -70.75442 | 21646 ft | 391 kts | 211° |
| 2026-05-06 13:34 | 41.80185 | -70.77201 | 22008 ft | 397 kts | 213° |
| 2026-05-06 13:35 | 41.77793 | -70.79023 | 22334 ft | 403 kts | 213° |
| 2026-05-06 13:35 | 41.75311 | -70.80910 | 22741 ft | 408 kts | 213° |
| 2026-05-06 13:35 | 41.72830 | -70.82782 | 23186 ft | 409 kts | 213° |
| 2026-05-06 13:35 | 41.70333 | -70.84651 | 23547 ft | 412 kts | 212° |
| 2026-05-06 13:36 | 41.67861 | -70.86506 | 23882 ft | 415 kts | 212° |
| 2026-05-06 13:36 | 41.65288 | -70.88440 | 24258 ft | 419 kts | 212° |
| 2026-05-06 13:36 | 41.62738 | -70.90350 | 24653 ft | 422 kts | 212° |
| 2026-05-06 13:36 | 41.60170 | -70.92268 | 25142 ft | 423 kts | 212° |
| 2026-05-06 13:37 | 41.57614 | -70.94198 | 25716 ft | 420 kts | 214° |
| 2026-05-06 13:37 | 41.55249 | -70.96440 | 26278 ft | 414 kts | 223° |
| 2026-05-06 13:37 | 41.53248 | -70.99167 | 26790 ft | 409 kts | 233° |
| 2026-05-06 13:37 | 41.51605 | -71.02248 | 27273 ft | 407 kts | 238° |
| 2026-05-06 13:38 | 41.50055 | -71.05403 | 27748 ft | 407 kts | 239° |
| 2026-05-06 13:38 | 41.48499 | -71.08576 | 27980 ft | 412 kts | 238° |
| 2026-05-06 13:38 | 41.46906 | -71.11788 | 28132 ft | 419 kts | 238° |
| 2026-05-06 13:38 | 41.45291 | -71.15017 | 28259 ft | 426 kts | 238° |
| 2026-05-06 13:39 | 41.43613 | -71.18363 | 28479 ft | 430 kts | 238° |
| 2026-05-06 13:39 | 41.41949 | -71.21672 | 28870 ft | 430 kts | 238° |
| 2026-05-06 13:39 | 41.40286 | -71.24977 | 29275 ft | 428 kts | 238° |
| 2026-05-06 13:39 | 41.38632 | -71.28261 | 29695 ft | 426 kts | 238° |
| 2026-05-06 13:40 | 41.36983 | -71.31526 | 30118 ft | 424 kts | 238° |
| 2026-05-06 13:40 | 41.35343 | -71.34775 | 30479 ft | 423 kts | 238° |
| 2026-05-06 13:40 | 41.33721 | -71.37991 | 30821 ft | 422 kts | 238° |
| 2026-05-06 13:40 | 41.32063 | -71.41271 | 31177 ft | 421 kts | 238° |
| 2026-05-06 13:41 | 41.30429 | -71.44500 | 31527 ft | 420 kts | 238° |
| 2026-05-06 13:41 | 41.28821 | -71.47676 | 31829 ft | 419 kts | 238° |
| 2026-05-06 13:41 | 41.27170 | -71.50933 | 32130 ft | 419 kts | 238° |
| 2026-05-06 13:41 | 41.25543 | -71.54139 | 32403 ft | 418 kts | 238° |
| 2026-05-06 13:42 | 41.23919 | -71.57335 | 32663 ft | 418 kts | 239° |
| 2026-05-06 13:42 | 41.22294 | -71.60531 | 32913 ft | 417 kts | 238° |
| 2026-05-06 13:42 | 41.20690 | -71.63684 | 33164 ft | 417 kts | 239° |
| 2026-05-06 13:42 | 41.19066 | -71.66871 | 33398 ft | 417 kts | 239° |
| 2026-05-06 13:43 | 41.17422 | -71.70095 | 33635 ft | 417 kts | 239° |
| 2026-05-06 13:43 | 41.15819 | -71.73231 | 33866 ft | 416 kts | 239° |
| 2026-05-06 13:43 | 41.14171 | -71.76455 | 34002 ft | 418 kts | 239° |
| 2026-05-06 13:44 | 41.10944 | -71.82805 | 34001 ft | 417 kts | 239° |
| 2026-05-06 13:44 | 41.07679 | -71.89222 | 33985 ft | 417 kts | 239° |
| 2026-05-06 13:45 | 41.04445 | -71.95560 | 33981 ft | 418 kts | 239° |
| 2026-05-06 13:45 | 41.00524 | -72.05763 | 33974 ft | 412 kts | 248° |
| 2026-05-06 13:46 | 40.98127 | -72.12616 | 33963 ft | 410 kts | 248° |
| 2026-05-06 13:46 | 40.95706 | -72.19464 | 33968 ft | 411 kts | 248° |
| 2026-05-06 13:47 | 40.93281 | -72.26308 | 33970 ft | 411 kts | 248° |
| 2026-05-06 13:47 | 40.90316 | -72.32793 | 33963 ft | 418 kts | 233° |
| 2026-05-06 13:48 | 40.86199 | -72.38282 | 33974 ft | 422 kts | 229° |
| 2026-05-06 13:48 | 40.82004 | -72.43690 | 33973 ft | 422 kts | 229° |
| 2026-05-06 13:49 | 40.77636 | -72.48892 | 33973 ft | 424 kts | 225° |
| 2026-05-06 13:49 | 40.73057 | -72.53826 | 33980 ft | 425 kts | 225° |
| 2026-05-06 13:50 | 40.68504 | -72.58782 | 33979 ft | 424 kts | 226° |
| 2026-05-06 13:50 | 40.64059 | -72.63887 | 33981 ft | 424 kts | 226° |
| 2026-05-06 13:51 | 40.59616 | -72.68995 | 33970 ft | 424 kts | 226° |
| 2026-05-06 13:51 | 40.55173 | -72.74093 | 33964 ft | 423 kts | 227° |
| 2026-05-06 13:52 | 40.50733 | -72.79178 | 33963 ft | 423 kts | 227° |
| 2026-05-06 13:52 | 40.46297 | -72.84249 | 33963 ft | 423 kts | 227° |
| 2026-05-06 13:53 | 40.42608 | -72.88460 | 33955 ft | 423 kts | 227° |
| 2026-05-06 13:53 | 40.38169 | -72.93512 | 33939 ft | 422 kts | 227° |
| 2026-05-06 13:54 | 40.33732 | -72.98562 | 33938 ft | 422 kts | 227° |
| 2026-05-06 13:54 | 40.29290 | -73.03604 | 33938 ft | 422 kts | 227° |
| 2026-05-06 13:55 | 40.24859 | -73.08623 | 33936 ft | 422 kts | 227° |
| 2026-05-06 13:55 | 40.20418 | -73.13645 | 33932 ft | 421 kts | 227° |
| 2026-05-06 13:56 | 40.16014 | -73.18617 | 33928 ft | 421 kts | 227° |
| 2026-05-06 13:56 | 40.11559 | -73.23637 | 33930 ft | 421 kts | 227° |
| 2026-05-06 13:57 | 40.07157 | -73.28590 | 33931 ft | 420 kts | 227° |
| 2026-05-06 13:57 | 40.02730 | -73.33551 | 33930 ft | 420 kts | 227° |
| 2026-05-06 13:58 | 39.98294 | -73.38511 | 33929 ft | 421 kts | 227° |
| 2026-05-06 13:58 | 39.93829 | -73.43497 | 33930 ft | 423 kts | 227° |
| 2026-05-06 13:59 | 39.89358 | -73.48483 | 33936 ft | 422 kts | 227° |
| 2026-05-06 13:59 | 39.84900 | -73.53447 | 33946 ft | 422 kts | 227° |
| 2026-05-06 14:00 | 39.80443 | -73.58410 | 33944 ft | 422 kts | 227° |
| 2026-05-06 14:00 | 39.75987 | -73.63367 | 33934 ft | 422 kts | 227° |
| 2026-05-06 14:01 | 39.71528 | -73.68318 | 33950 ft | 422 kts | 227° |
| 2026-05-06 14:01 | 39.67098 | -73.73229 | 33953 ft | 421 kts | 227° |
| 2026-05-06 14:02 | 39.62642 | -73.78162 | 33935 ft | 421 kts | 227° |
| 2026-05-06 14:02 | 39.58178 | -73.83091 | 33937 ft | 422 kts | 227° |
| 2026-05-06 14:03 | 39.53712 | -73.88015 | 33938 ft | 422 kts | 227° |
| 2026-05-06 14:03 | 39.49242 | -73.92934 | 33939 ft | 422 kts | 227° |
| 2026-05-06 14:04 | 39.44762 | -73.97854 | 33939 ft | 423 kts | 227° |
| 2026-05-06 14:04 | 39.40275 | -74.02777 | 33953 ft | 422 kts | 227° |
| 2026-05-06 14:05 | 39.35810 | -74.07657 | 33961 ft | 420 kts | 227° |
| 2026-05-06 14:05 | 39.31337 | -74.12540 | 33963 ft | 421 kts | 227° |
| 2026-05-06 14:06 | 39.26864 | -74.17417 | 33960 ft | 421 kts | 227° |
| 2026-05-06 14:06 | 39.22381 | -74.22294 | 33960 ft | 422 kts | 227° |
| 2026-05-06 14:07 | 39.17918 | -74.27140 | 33957 ft | 422 kts | 227° |
| 2026-05-06 14:07 | 39.13416 | -74.32019 | 33955 ft | 423 kts | 227° |
| 2026-05-06 14:08 | 39.08910 | -74.36896 | 33955 ft | 423 kts | 227° |
| 2026-05-06 14:08 | 39.04408 | -74.41763 | 33959 ft | 424 kts | 227° |
| 2026-05-06 14:09 | 38.99885 | -74.46643 | 33943 ft | 424 kts | 227° |
| 2026-05-06 14:09 | 38.95609 | -74.51765 | 33953 ft | 414 kts | 238° |
| 2026-05-06 14:10 | 38.93001 | -74.58126 | 33959 ft | 398 kts | 258° |
| 2026-05-06 14:10 | 38.91669 | -74.65010 | 33959 ft | 397 kts | 261° |
| 2026-05-06 14:11 | 38.90362 | -74.71893 | 33957 ft | 397 kts | 260° |
| 2026-05-06 14:11 | 38.89028 | -74.78789 | 33964 ft | 398 kts | 260° |
| 2026-05-06 14:12 | 38.87731 | -74.85703 | 33958 ft | 399 kts | 260° |
| 2026-05-06 14:12 | 38.86425 | -74.92617 | 33956 ft | 399 kts | 260° |
| 2026-05-06 14:13 | 38.85116 | -74.99514 | 33957 ft | 398 kts | 260° |
| 2026-05-06 14:13 | 38.84461 | -75.02948 | 33658 ft | 395 kts | 260° |
| 2026-05-06 14:13 | 38.83802 | -75.06409 | 32449 ft | 403 kts | 260° |
| 2026-05-06 14:14 | 38.83138 | -75.09885 | 31384 ft | 408 kts | 259° |
| 2026-05-06 14:14 | 38.82452 | -75.13464 | 30458 ft | 408 kts | 259° |
| 2026-05-06 14:14 | 38.81771 | -75.17011 | 29553 ft | 410 kts | 258° |
| 2026-05-06 14:14 | 38.81121 | -75.20574 | 28623 ft | 411 kts | 261° |
| 2026-05-06 14:15 | 38.80768 | -75.24209 | 27695 ft | 412 kts | 266° |
| 2026-05-06 14:15 | 38.80541 | -75.27876 | 26732 ft | 415 kts | 266° |
| 2026-05-06 14:15 | 38.80326 | -75.31539 | 25756 ft | 418 kts | 266° |
| 2026-05-06 14:15 | 38.80099 | -75.35312 | 24786 ft | 419 kts | 266° |
| 2026-05-06 14:16 | 38.79869 | -75.39027 | 23901 ft | 418 kts | 265° |
| 2026-05-06 14:16 | 38.79637 | -75.42741 | 23041 ft | 417 kts | 265° |
| 2026-05-06 14:16 | 38.79406 | -75.46397 | 22248 ft | 416 kts | 265° |
| 2026-05-06 14:16 | 38.79170 | -75.50125 | 21510 ft | 412 kts | 265° |
| 2026-05-06 14:17 | 38.78938 | -75.53774 | 20718 ft | 410 kts | 264° |
| 2026-05-06 14:17 | 38.78708 | -75.57356 | 19917 ft | 408 kts | 264° |
| 2026-05-06 14:17 | 38.78473 | -75.61010 | 19129 ft | 405 kts | 264° |
| 2026-05-06 14:17 | 38.78241 | -75.64589 | 18364 ft | 403 kts | 264° |
| 2026-05-06 14:18 | 38.78007 | -75.68159 | 17626 ft | 401 kts | 263° |
| 2026-05-06 14:18 | 38.77776 | -75.71691 | 17024 ft | 392 kts | 263° |
| 2026-05-06 14:18 | 38.77551 | -75.75155 | 16424 ft | 389 kts | 263° |
| 2026-05-06 14:18 | 38.77326 | -75.78585 | 15802 ft | 385 kts | 263° |
| 2026-05-06 14:19 | 38.77101 | -75.81955 | 15171 ft | 383 kts | 263° |
| 2026-05-06 14:19 | 38.76879 | -75.85348 | 14541 ft | 381 kts | 263° |
| 2026-05-06 14:19 | 38.76655 | -75.88724 | 13921 ft | 378 kts | 263° |
| 2026-05-06 14:19 | 38.76425 | -75.92072 | 13286 ft | 377 kts | 262° |
| 2026-05-06 14:20 | 38.76201 | -75.95406 | 12626 ft | 374 kts | 262° |
| 2026-05-06 14:20 | 38.75976 | -75.98719 | 12017 ft | 373 kts | 262° |
| 2026-05-06 14:20 | 38.75757 | -76.01970 | 11618 ft | 360 kts | 262° |
| 2026-05-06 14:20 | 38.75549 | -76.05091 | 11371 ft | 343 kts | 262° |
| 2026-05-06 14:21 | 38.75548 | -76.08083 | 11154 ft | 330 kts | 270° |
| 2026-05-06 14:21 | 38.75799 | -76.10950 | 11000 ft | 315 kts | 272° |
| 2026-05-06 14:21 | 38.76074 | -76.13657 | 10972 ft | 296 kts | 273° |
| 2026-05-06 14:21 | 38.76328 | -76.16212 | 10977 ft | 290 kts | 272° |
| 2026-05-06 14:22 | 38.76574 | -76.18840 | 10760 ft | 308 kts | 272° |
| 2026-05-06 14:22 | 38.76832 | -76.21601 | 10501 ft | 310 kts | 273° |
| 2026-05-06 14:22 | 38.77091 | -76.24326 | 10266 ft | 308 kts | 273° |
| 2026-05-06 14:22 | 38.77348 | -76.27045 | 10168 ft | 307 kts | 272° |
| 2026-05-06 14:23 | 38.77604 | -76.29768 | 10091 ft | 308 kts | 272° |
| 2026-05-06 14:23 | 38.77855 | -76.32482 | 10028 ft | 306 kts | 273° |
| 2026-05-06 14:23 | 38.78106 | -76.35198 | 10010 ft | 307 kts | 272° |
| 2026-05-06 14:23 | 38.78355 | -76.37907 | 10009 ft | 305 kts | 272° |
| 2026-05-06 14:24 | 38.78603 | -76.40619 | 10016 ft | 308 kts | 272° |
| 2026-05-06 14:24 | 38.78850 | -76.43342 | 10020 ft | 307 kts | 272° |
| 2026-05-06 14:24 | 38.79100 | -76.46061 | 10017 ft | 307 kts | 272° |
| 2026-05-06 14:24 | 38.79347 | -76.48775 | 10022 ft | 307 kts | 272° |
| 2026-05-06 14:25 | 38.79595 | -76.51494 | 10022 ft | 307 kts | 272° |
| 2026-05-06 14:25 | 38.79798 | -76.54203 | 10025 ft | 305 kts | 269° |
| 2026-05-06 14:25 | 38.79903 | -76.56904 | 10014 ft | 304 kts | 268° |
| 2026-05-06 14:25 | 38.79989 | -76.59620 | 10013 ft | 306 kts | 268° |
| 2026-05-06 14:26 | 38.80077 | -76.62341 | 10003 ft | 304 kts | 268° |
| 2026-05-06 14:26 | 38.80166 | -76.65041 | 10002 ft | 303 kts | 268° |
| 2026-05-06 14:26 | 38.80254 | -76.67754 | 10010 ft | 304 kts | 268° |
| 2026-05-06 14:26 | 38.80345 | -76.70458 | 10011 ft | 305 kts | 268° |
| 2026-05-06 14:27 | 38.80432 | -76.73170 | 10019 ft | 305 kts | 268° |
| 2026-05-06 14:27 | 38.80527 | -76.75881 | 10008 ft | 301 kts | 270° |
| 2026-05-06 14:27 | 38.80931 | -76.78377 | 9927 ft | 290 kts | 286° |
| 2026-05-06 14:27 | 38.81989 | -76.80621 | 9746 ft | 286 kts | 302° |
| 2026-05-06 14:28 | 38.83233 | -76.82580 | 9357 ft | 283 kts | 303° |
| 2026-05-06 14:28 | 38.84485 | -76.84520 | 8963 ft | 281 kts | 303° |
| 2026-05-06 14:28 | 38.85721 | -76.86462 | 8516 ft | 280 kts | 303° |
| 2026-05-06 14:28 | 38.86927 | -76.88373 | 8235 ft | 270 kts | 302° |
| 2026-05-06 14:29 | 38.88128 | -76.90179 | 8065 ft | 262 kts | 307° |
| 2026-05-06 14:29 | 38.89386 | -76.91802 | 7904 ft | 251 kts | 308° |
| 2026-05-06 14:29 | 38.90614 | -76.93355 | 7624 ft | 246 kts | 307° |
| 2026-05-06 14:29 | 38.91823 | -76.94887 | 7265 ft | 243 kts | 307° |
| 2026-05-06 14:30 | 38.93015 | -76.96408 | 6883 ft | 241 kts | 307° |
| 2026-05-06 14:30 | 38.94194 | -76.97913 | 6501 ft | 239 kts | 307° |
| 2026-05-06 14:30 | 38.95363 | -76.99407 | 6244 ft | 232 kts | 307° |
| 2026-05-06 14:30 | 38.96492 | -77.00847 | 5915 ft | 227 kts | 306° |
| 2026-05-06 14:31 | 38.97589 | -77.02251 | 5551 ft | 225 kts | 306° |
| 2026-05-06 14:31 | 38.98695 | -77.03669 | 5161 ft | 224 kts | 306° |
| 2026-05-06 14:31 | 38.99794 | -77.05082 | 4746 ft | 224 kts | 306° |
| 2026-05-06 14:31 | 39.00904 | -77.06507 | 4315 ft | 225 kts | 307° |
| 2026-05-06 14:32 | 39.02008 | -77.07928 | 3909 ft | 225 kts | 307° |
| 2026-05-06 14:32 | 39.03129 | -77.09367 | 3495 ft | 224 kts | 307° |
| 2026-05-06 14:32 | 39.04120 | -77.10841 | 3111 ft | 214 kts | 288° |
| 2026-05-06 14:32 | 39.04435 | -77.12549 | 2965 ft | 184 kts | 263° |
| 2026-05-06 14:33 | 39.04334 | -77.14100 | 2799 ft | 165 kts | 245° |
| 2026-05-06 14:33 | 39.03876 | -77.15437 | 2680 ft | 164 kts | 233° |
| 2026-05-06 14:33 | 39.03174 | -77.16556 | 2663 ft | 161 kts | 216° |
| 2026-05-06 14:33 | 39.02145 | -77.17116 | 2676 ft | 162 kts | 189° |
| 2026-05-06 14:34 | 39.01015 | -77.16970 | 2684 ft | 168 kts | 169° |
| 2026-05-06 14:34 | 38.99890 | -77.16537 | 2693 ft | 168 kts | 169° |
| 2026-05-06 14:34 | 38.98767 | -77.16134 | 2693 ft | 169 kts | 170° |
| 2026-05-06 14:34 | 38.97637 | -77.15739 | 2702 ft | 165 kts | 172° |
| 2026-05-06 14:35 | 38.96551 | -77.15308 | 2688 ft | 158 kts | 163° |
| 2026-05-06 14:35 | 38.95691 | -77.14466 | 2492 ft | 158 kts | 142° |
| 2026-05-06 14:35 | 38.94882 | -77.13530 | 2172 ft | 158 kts | 146° |
| 2026-05-06 14:35 | 38.94047 | -77.12617 | 2003 ft | 156 kts | 145° |
| 2026-05-06 14:36 | 38.93202 | -77.11757 | 1984 ft | 154 kts | 151° |
| 2026-05-06 14:36 | 38.92277 | -77.11147 | 1848 ft | 144 kts | 159° |
| 2026-05-06 14:36 | 38.91429 | -77.10587 | 1625 ft | 137 kts | 152° |
| 2026-05-06 14:36 | 38.90794 | -77.09654 | 1435 ft | 143 kts | 125° |
| 2026-05-06 14:37 | 38.90441 | -77.08454 | 1255 ft | 146 kts | 108° |
| 2026-05-06 14:37 | 38.90067 | -77.07275 | 1053 ft | 141 kts | 129° |
| 2026-05-06 14:37 | 38.89407 | -77.06368 | 877 ft | 139 kts | 138° |
| 2026-05-06 14:37 | 38.88747 | -77.05454 | 676 ft | 139 kts | 135° |
| 2026-05-06 14:38 | 38.88089 | -77.04540 | 471 ft | 139 kts | 136° |
| 2026-05-06 14:38 | 38.87274 | -77.03963 | 281 ft | 137 kts | 172° |
| 2026-05-06 14:38 | 38.86327 | -77.03883 | 126 ft | 137 kts | 176° |
| 2026-05-06 14:38 | 38.85389 | -77.03797 | 29 ft | 130 kts | 176° |
| 2026-05-06 14:39 | 38.84727 | -77.03733 | 30 ft | 52 kts | 176° |
| 2026-05-06 14:39 | 38.84469 | -77.03708 | 29 ft | 22 kts | 175° |
| 2026-05-06 14:39 | 38.84402 | -77.03726 | 29 ft | 10 kts | 217° |
| 2026-05-06 14:39 | 38.84386 | -77.03821 | 30 ft | 13 kts | 301° |
| 2026-05-06 14:40 | 38.84476 | -77.03844 | 30 ft | 15 kts | 356° |
| 2026-05-06 14:40 | 38.84584 | -77.03856 | 30 ft | 17 kts | 354° |
| 2026-05-06 14:40 | 38.84705 | -77.03871 | 30 ft | 18 kts | 355° |
| 2026-05-06 14:40 | 38.84837 | -77.03885 | 29 ft | 20 kts | 355° |
| 2026-05-06 14:41 | 38.84953 | -77.03897 | 29 ft | 16 kts | 355° |
| 2026-05-06 14:41 | 38.85045 | -77.03950 | 29 ft | 2 kts | 323° |
| 2026-05-06 14:41 | 38.85046 | -77.03950 | 29 ft | 1 kts | 323° |
| 2026-05-06 14:41 | 38.85068 | -77.03965 | 29 ft | 5 kts | 348° |
| 2026-05-06 14:42 | 38.85111 | -77.03980 | 29 ft | 8 kts | 313° |
| 2026-05-06 14:42 | 38.85130 | -77.04007 | 29 ft | 5 kts | 317° |
| 2026-05-06 14:42 | 38.85151 | -77.04031 | 29 ft | 0 kts | 317° |
| 2026-05-06 14:42 | 38.85155 | -77.04037 | 29 ft | 2 kts | 317° |
| 2026-05-06 14:43 | 38.85168 | -77.04052 | 29 ft | 0 kts | 317° |